Terminal Aerodrome Forecast
Issued by NWS Quad Cities IA IL

Current Version | Previous Version | Text Only | Print | Product List | Glossary On
Versions: 1 2 3 4 5 6 7 8 9 10 11 12 13 14 15 16
000
FTUS43 KDVN 240900 AAA
TAFMLI
TAF AMD
KMLI 240922Z 2409/2506 VRB02KT 1SM BR OVC010
      TEMPO 2409/2412 00000KT 1/2SM FG SCT003
     FM241500 19006KT 6SM BR SCT007 BKN020
     FM241800 20008KT 6SM BR SCT020 SCT120=

USA.gov is the U.S. government's official web portal to all federal, state and local government web resources and services.